createdAt,value
2022-11-19T00:00:46.838Z,99890.78
2022-11-19T00:03:14.292Z,99927.50
2022-11-19T00:05:41.888Z,99931.16
2022-11-19T00:08:09.447Z,99909.13
2022-11-19T00:10:38.281Z,99931.22
2022-11-19T00:13:05.331Z,99889.28
2022-11-19T00:15:34.414Z,99908.16
2022-11-19T00:18:01.910Z,99935.66
2022-11-19T00:20:29.508Z,99945.31
2022-11-19T00:22:57.830Z,99901.38
2022-11-19T00:25:26.003Z,99912.63
2022-11-19T00:27:54.777Z,99942.75
2022-11-19T00:30:46.299Z,99934.91
2022-11-19T00:33:09.632Z,99941.81
2022-11-19T00:37:56.840Z,99946.25
2022-11-19T00:40:24.353Z,99944.63
2022-11-19T00:43:05.827Z,99945.56
2022-11-19T00:45:34.682Z,99945.50
2022-11-19T00:48:02.201Z,99948.13
2022-11-19T00:50:29.733Z,99951.69
2022-11-19T00:52:57.206Z,99945.63
2022-11-19T00:55:24.662Z,99944.78
2022-11-19T00:57:52.118Z,99951.91
2022-11-19T01:00:19.731Z,99954.56
2022-11-19T01:02:48.515Z,99951.06
2022-11-19T01:05:16.047Z,99962.41
2022-11-19T01:07:43.565Z,99965.88
2022-11-19T01:10:11.076Z,99968.53
2022-11-19T01:12:59.329Z,99970.34
2022-11-19T01:15:26.870Z,99967.03
2022-11-19T01:17:55.649Z,99967.72
2022-11-19T01:20:23.178Z,99961.44
2022-11-19T01:22:50.726Z,99958.94
2022-11-19T01:25:18.273Z,99971.38
2022-11-19T01:27:45.726Z,99782.00
2022-11-19T01:30:13.535Z,99973.22
2022-11-19T01:32:41.013Z,99966.22
2022-11-19T01:35:10.349Z,99967.16
2022-11-19T01:37:37.829Z,99975.06
2022-11-19T01:40:06.441Z,99976.81
2022-11-19T01:42:53.848Z,99977.69
2022-11-19T01:45:33.229Z,99976.69
2022-11-19T01:48:01.940Z,99972.47
2022-11-19T01:50:30.956Z,99976.81
2022-11-19T01:52:58.416Z,99972.53
2022-11-19T01:55:26.040Z,99963.78
2022-11-19T01:57:55.177Z,99981.31
2022-11-19T02:00:23.078Z,99984.78
2022-11-19T02:02:50.586Z,99979.56
2022-11-19T02:05:18.111Z,99989.25
2022-11-19T02:07:50.318Z,99991.03
2022-11-19T02:10:17.905Z,100001.50
2022-11-19T02:12:46.953Z,100002.34
2022-11-19T02:15:18.680Z,99944.25
2022-11-19T02:18:07.108Z,100011.16
2022-11-19T02:20:45.549Z,100013.19
2022-11-19T02:23:46.380Z,100009.50
2022-11-19T02:26:33.851Z,99959.22
2022-11-19T02:29:06.340Z,100005.16
2022-11-19T02:31:36.845Z,99955.66
2022-11-19T02:34:08.833Z,100015.81
2022-11-19T02:36:38.900Z,100008.69
2022-11-19T02:39:07.648Z,100011.44
2022-11-19T02:41:37.094Z,100023.72
2022-11-19T02:44:27.196Z,99987.16
2022-11-19T02:46:55.800Z,100026.50
2022-11-19T02:49:24.763Z,99919.16
2022-11-19T02:51:52.208Z,100019.47
2022-11-19T02:54:19.638Z,100024.00
2022-11-19T02:56:49.681Z,100031.84
2022-11-19T02:59:35.263Z,99931.66
2022-11-19T03:02:21.715Z,100029.31
2022-11-19T03:04:49.161Z,100033.84
2022-11-19T03:07:18.391Z,99940.31
2022-11-19T03:09:48.080Z,99957.47
2022-11-19T03:12:19.812Z,99999.47
2022-11-19T03:15:10.182Z,100033.19
2022-11-19T03:17:52.216Z,100038.47
2022-11-19T03:20:22.023Z,100039.28
2022-11-19T03:22:51.220Z,99994.38
2022-11-19T03:25:20.917Z,100055.16
2022-11-19T03:27:49.380Z,100009.28
2022-11-19T03:30:17.449Z,99981.81
2022-11-19T03:32:48.688Z,100060.72
2022-11-19T03:35:17.092Z,100034.13
2022-11-19T03:37:44.840Z,100064.28
2022-11-19T03:40:12.741Z,99975.16
2022-11-19T03:42:40.234Z,100065.28
2022-11-19T03:45:11.044Z,100067.03
2022-11-19T03:47:39.489Z,100027.75
2022-11-19T03:50:11.686Z,100065.34
2022-11-19T03:52:39.129Z,100065.47
2022-11-19T03:55:07.013Z,100073.34
2022-11-19T03:57:34.688Z,100067.31
2022-11-19T04:00:02.130Z,100078.66
2022-11-19T04:02:29.569Z,100070.72
2022-11-19T04:04:56.996Z,100070.81
2022-11-19T04:07:25.851Z,100015.84
2022-11-19T04:09:53.348Z,100064.03
2022-11-19T04:12:21.580Z,100072.56
2022-11-19T04:14:49.231Z,100075.31
2022-11-19T04:17:16.908Z,100075.38
2022-11-19T04:19:44.473Z,100016.53
2022-11-19T04:22:12.128Z,100037.00
2022-11-19T04:24:40.893Z,100079.88
2022-11-19T04:27:08.347Z,100083.34
2022-11-19T04:29:35.774Z,100084.25
2022-11-19T04:32:03.237Z,100085.34
2022-11-19T04:34:30.667Z,100094.03
2022-11-19T04:36:58.120Z,100095.84
2022-11-19T04:39:25.560Z,100097.66
2022-11-19T04:41:54.335Z,100095.00
2022-11-19T04:44:21.752Z,100104.66
2022-11-19T04:46:49.186Z,100095.84
2022-11-19T04:49:16.860Z,100098.47
2022-11-19T04:51:44.549Z,100095.16
2022-11-19T04:54:13.016Z,100102.19
2022-11-19T04:56:40.464Z,100104.00
2022-11-19T04:59:09.526Z,100106.66
2022-11-19T05:01:37.156Z,100097.78
2022-11-19T05:04:04.824Z,100097.00
2022-11-19T05:06:33.311Z,100052.44
2022-11-19T05:09:00.739Z,100107.56
2022-11-19T05:11:28.176Z,100112.78
2022-11-19T05:13:55.625Z,100107.63
2022-11-19T05:16:24.397Z,100027.03
2022-11-19T05:18:51.838Z,100110.31
2022-11-19T05:21:19.282Z,100113.00
2022-11-19T05:23:46.731Z,100114.84
2022-11-19T05:26:14.170Z,100109.88
2022-11-19T05:28:41.634Z,100115.63
2022-11-19T05:31:09.437Z,100120.88
2022-11-19T05:33:38.212Z,100120.06
2022-11-19T05:36:06.485Z,100131.44
2022-11-19T05:38:33.944Z,100126.34
2022-11-19T05:41:01.396Z,100123.75
2022-11-19T05:43:28.858Z,100096.59
2022-11-19T05:45:56.307Z,100129.03
2022-11-19T05:48:23.735Z,100139.53
2022-11-19T05:50:52.500Z,100143.16
2022-11-19T05:53:19.941Z,100138.78
2022-11-19T05:55:47.356Z,100139.75
2022-11-19T05:58:14.810Z,100144.06
2022-11-19T06:00:42.273Z,100145.94
2022-11-19T06:03:10.008Z,100144.19
2022-11-19T06:05:40.629Z,100145.94
2022-11-19T06:08:09.663Z,100151.09
2022-11-19T06:10:37.131Z,100153.00
2022-11-19T06:13:04.667Z,100094.63
2022-11-19T06:15:32.107Z,100154.63
2022-11-19T06:17:59.575Z,100149.50
2022-11-19T06:20:27.029Z,100149.50
2022-11-19T06:22:54.541Z,100077.59
2022-11-19T06:25:23.331Z,100150.63
2022-11-19T06:27:50.857Z,100155.78
2022-11-19T06:30:18.360Z,100155.91
2022-11-19T06:32:45.804Z,100166.47
2022-11-19T06:35:14.409Z,100163.69
2022-11-19T06:37:42.171Z,100129.28
2022-11-19T06:40:10.790Z,100159.38
2022-11-19T06:42:39.562Z,100165.63
2022-11-19T06:45:08.025Z,100164.91
2022-11-19T06:47:35.487Z,100172.63
2022-11-19T06:50:02.957Z,100164.91
2022-11-19T06:52:30.411Z,100179.81
2022-11-19T06:54:57.855Z,100188.50
2022-11-19T06:57:25.750Z,100086.34
2022-11-19T06:59:54.534Z,100193.00
2022-11-19T07:02:22.036Z,100193.84
2022-11-19T07:04:49.536Z,100202.69
2022-11-19T07:07:17.050Z,100156.34
2022-11-19T07:09:44.576Z,100210.63
2022-11-19T07:12:12.002Z,100214.91
2022-11-19T07:14:39.439Z,100217.53
2022-11-19T07:17:08.226Z,100225.41
2022-11-19T07:19:35.664Z,100229.78
2022-11-19T07:22:03.114Z,100227.19
2022-11-19T07:24:30.811Z,100228.91
2022-11-19T07:26:58.252Z,100238.53
2022-11-19T07:29:25.707Z,100230.91
2022-11-19T07:31:53.299Z,100242.09
2022-11-19T07:34:22.079Z,100249.19
2022-11-19T07:36:49.993Z,100214.03
2022-11-19T07:39:18.083Z,100252.75
2022-11-19T07:42:03.560Z,100256.97
2022-11-19T07:44:31.043Z,100260.47
2022-11-19T07:46:58.639Z,100262.91
2022-11-19T07:49:27.450Z,100260.44
2022-11-19T07:51:54.978Z,100226.88
2022-11-19T07:54:22.415Z,100264.72
2022-11-19T07:56:49.866Z,100272.56
2022-11-19T07:59:17.783Z,100267.28
2022-11-19T08:01:45.403Z,100261.00
2022-11-19T08:04:12.919Z,100267.94
2022-11-19T08:06:41.701Z,100261.84
2022-11-19T08:09:09.149Z,100269.72
2022-11-19T08:11:36.595Z,100195.00
2022-11-19T08:14:04.054Z,100266.16
2022-11-19T08:16:50.695Z,100257.50
2022-11-19T08:19:18.771Z,100271.38
2022-11-19T08:21:47.869Z,100230.16
2022-11-19T08:24:15.852Z,100198.16
2022-11-19T08:26:43.300Z,100258.03
2022-11-19T08:29:15.981Z,100265.94
2022-11-19T08:31:44.356Z,100277.31
2022-11-19T08:34:11.787Z,100271.19
2022-11-19T08:36:39.536Z,100261.47
2022-11-19T08:39:08.361Z,100262.31
2022-11-19T08:41:58.532Z,100254.59
2022-11-19T08:44:25.837Z,100254.41
2022-11-19T08:46:53.308Z,100254.28
2022-11-19T08:49:20.945Z,100250.75
2022-11-19T08:51:48.449Z,100263.84
2022-11-19T08:54:17.821Z,100263.78
2022-11-19T08:56:45.551Z,100219.13
2022-11-19T08:59:12.991Z,100263.78
2022-11-19T09:01:40.465Z,100262.06
2022-11-19T09:04:07.916Z,100226.13
2022-11-19T09:06:35.643Z,100227.94
2022-11-19T09:09:03.104Z,100271.78
2022-11-19T09:11:31.911Z,100275.31
2022-11-19T09:13:59.377Z,100277.94
2022-11-19T09:16:26.826Z,100276.94
2022-11-19T09:18:54.269Z,100272.63
2022-11-19T09:21:21.729Z,100276.03
2022-11-19T09:23:49.163Z,100268.94
2022-11-19T09:26:17.417Z,100270.69
2022-11-19T09:28:46.340Z,100276.81
2022-11-19T09:31:14.617Z,100275.94
2022-11-19T09:33:42.995Z,100141.28
2022-11-19T09:36:11.125Z,100238.06
2022-11-19T09:38:39.253Z,100269.75
2022-11-19T09:41:16.256Z,100265.31
2022-11-19T09:43:48.573Z,100238.72
2022-11-19T09:46:18.182Z,100274.81
2022-11-19T09:48:46.016Z,100271.22
2022-11-19T09:51:15.005Z,100196.47
2022-11-19T09:53:43.827Z,100256.41
2022-11-19T09:56:11.967Z,100266.72
2022-11-19T09:58:40.278Z,100269.25
2022-11-19T10:01:11.961Z,100277.16
2022-11-19T10:03:39.417Z,100280.66
2022-11-19T10:06:18.830Z,100276.22
2022-11-19T10:09:02.817Z,100271.78
2022-11-19T10:11:37.181Z,100272.41
2022-11-19T10:14:09.254Z,100276.63
2022-11-19T10:16:44.661Z,100275.56
2022-11-19T10:19:17.130Z,100241.06
2022-11-19T10:21:47.789Z,100271.81
2022-11-19T10:24:18.132Z,100195.97
2022-11-19T10:26:48.345Z,100210.34
2022-11-19T10:29:17.186Z,100269.19
2022-11-19T10:31:47.441Z,100207.84
2022-11-19T10:34:17.663Z,100269.50
2022-11-19T10:36:46.493Z,100259.72
2022-11-19T10:39:18.015Z,100238.03
2022-11-19T10:41:47.920Z,100249.69
2022-11-19T10:44:40.157Z,100252.13
2022-11-19T10:47:11.733Z,100255.53
2022-11-19T10:49:40.484Z,100257.19
2022-11-19T10:52:12.144Z,100214.28
2022-11-19T10:54:39.742Z,100251.09
2022-11-19T10:57:08.640Z,100249.22
2022-11-19T10:59:36.586Z,100244.88
2022-11-19T11:02:04.810Z,100205.31
2022-11-19T11:04:33.573Z,100250.94
2022-11-19T11:07:01.833Z,100243.91
2022-11-19T11:09:33.997Z,100178.94
2022-11-19T11:12:22.106Z,100232.50
2022-11-19T11:14:55.631Z,100233.44
2022-11-19T11:17:24.732Z,100181.16
2022-11-19T11:20:04.664Z,100227.19
2022-11-19T11:22:32.099Z,100227.41
2022-11-19T11:25:04.260Z,100224.72
2022-11-19T11:27:35.867Z,100168.91
2022-11-19T11:30:06.740Z,100191.34
2022-11-19T11:32:34.405Z,100208.50
2022-11-19T11:35:07.508Z,100216.69
2022-11-19T11:37:36.559Z,100205.38
2022-11-19T11:40:04.935Z,100214.06
2022-11-19T11:42:32.369Z,100216.59
2022-11-19T11:45:00.510Z,100202.47
2022-11-19T11:47:29.264Z,100141.47
2022-11-19T11:49:58.608Z,100195.41
2022-11-19T11:52:29.196Z,100172.44
2022-11-19T11:55:01.215Z,100139.59
2022-11-19T11:57:29.766Z,100158.66
2022-11-19T11:59:57.326Z,100195.53
2022-11-19T12:02:29.901Z,100183.56
2022-11-19T12:04:57.854Z,100201.47
2022-11-19T12:07:35.785Z,100131.78
2022-11-19T12:10:08.694Z,100145.44
2022-11-19T12:12:38.226Z,100191.69
2022-11-19T12:15:10.499Z,100191.63
2022-11-19T12:17:42.541Z,100188.00
2022-11-19T12:20:22.440Z,100170.19
2022-11-19T12:22:59.192Z,100188.19
2022-11-19T12:25:30.464Z,100136.25
2022-11-19T12:28:20.453Z,100161.22
2022-11-19T12:30:54.778Z,100195.53
2022-11-19T12:33:27.349Z,100198.22
2022-11-19T12:35:57.640Z,100195.63
2022-11-19T12:38:36.010Z,100135.41
2022-11-19T12:41:12.358Z,100195.41
2022-11-19T12:43:48.656Z,100199.53
2022-11-19T12:46:19.293Z,100200.19
2022-11-19T12:48:53.521Z,100108.25
2022-11-19T12:51:26.403Z,100207.13
2022-11-19T12:54:06.738Z,100194.81
2022-11-19T12:56:40.369Z,100187.03
2022-11-19T12:59:12.908Z,100200.53
2022-11-19T13:01:41.503Z,100193.53
2022-11-19T13:04:12.832Z,100182.81
2022-11-19T13:06:43.867Z,99980.13
2022-11-19T13:09:16.414Z,100191.88
2022-11-19T13:11:45.008Z,100190.16
2022-11-19T13:14:14.949Z,100145.44
2022-11-19T13:16:42.396Z,100184.78
2022-11-19T13:19:18.698Z,100181.41
2022-11-19T13:21:48.945Z,100183.91
2022-11-19T13:24:25.264Z,100148.81
2022-11-19T13:26:52.826Z,100147.88
2022-11-19T13:29:27.951Z,100175.22
2022-11-19T13:31:57.040Z,100186.47
2022-11-19T13:34:26.814Z,100178.56
2022-11-19T13:36:59.619Z,100141.97
2022-11-19T13:39:32.092Z,100146.94
2022-11-19T13:42:17.492Z,100180.38
2022-11-19T13:44:44.971Z,100177.75
2022-11-19T13:47:14.899Z,100176.00
2022-11-19T13:49:43.708Z,100126.47
2022-11-19T13:52:11.664Z,100019.09
2022-11-19T13:54:40.938Z,100151.94
2022-11-19T13:57:09.241Z,100162.13
2022-11-19T13:59:38.525Z,100163.00
2022-11-19T14:02:16.410Z,100160.38
2022-11-19T14:05:04.394Z,100159.53
2022-11-19T14:07:42.518Z,100169.28
2022-11-19T14:10:16.383Z,100167.50
2022-11-19T14:13:08.035Z,100162.19
2022-11-19T14:16:01.488Z,100157.22
2022-11-19T14:18:53.053Z,100153.72
2022-11-19T14:22:03.864Z,100156.47
2022-11-19T14:25:14.445Z,100158.28
2022-11-19T14:27:43.617Z,100161.84
2022-11-19T14:30:19.534Z,100113.84
2022-11-19T14:32:51.174Z,100155.72
2022-11-19T14:35:33.229Z,100160.16
2022-11-19T14:38:36.220Z,100154.13
2022-11-19T14:41:15.464Z,100091.88
2022-11-19T14:44:09.640Z,100164.91
2022-11-19T14:46:44.878Z,100166.13
2022-11-19T14:49:32.813Z,100172.28
2022-11-19T14:52:00.336Z,100168.88
2022-11-19T14:54:32.284Z,100171.75
2022-11-19T14:57:05.382Z,100101.47
2022-11-19T14:59:36.249Z,100169.22
2022-11-19T15:02:06.207Z,100142.59
2022-11-19T15:04:35.661Z,100165.00
2022-11-19T15:07:03.501Z,100163.28
2022-11-19T15:09:52.884Z,100166.09
2022-11-19T15:12:20.738Z,100101.81
2022-11-19T15:15:03.495Z,100150.88
2022-11-19T15:17:30.974Z,100163.22
2022-11-19T15:20:09.553Z,100100.50
2022-11-19T15:22:42.789Z,100163.16
2022-11-19T15:25:31.976Z,100162.22
2022-11-19T15:28:02.689Z,100169.53
2022-11-19T15:30:40.895Z,100160.75
2022-11-19T15:33:38.413Z,100088.56
2022-11-19T15:36:16.712Z,100112.78
2022-11-19T15:38:44.813Z,100151.50
2022-11-19T15:41:14.106Z,100148.94
2022-11-19T15:43:43.053Z,100149.91
2022-11-19T15:46:13.354Z,100100.94
2022-11-19T15:48:43.768Z,100079.50
2022-11-19T15:51:13.078Z,100068.41
2022-11-19T15:53:40.512Z,100130.91
2022-11-19T15:56:08.960Z,100087.50
2022-11-19T15:58:40.122Z,100113.88
2022-11-19T16:01:08.620Z,100127.56
2022-11-19T16:03:37.776Z,100124.16
2022-11-19T16:06:08.300Z,100119.78
2022-11-19T16:08:35.772Z,100119.31
2022-11-19T16:11:20.949Z,100084.19
2022-11-19T16:14:09.329Z,100130.41
2022-11-19T16:16:54.584Z,100142.75
2022-11-19T16:19:23.688Z,100137.47
2022-11-19T16:21:53.295Z,100142.91
2022-11-19T16:24:38.295Z,100151.78
2022-11-19T16:27:05.884Z,100150.09
2022-11-19T16:29:34.394Z,100144.66
2022-11-19T16:32:01.857Z,100146.50
2022-11-19T16:34:31.153Z,100112.44
2022-11-19T16:36:58.621Z,100146.69
2022-11-19T16:39:27.209Z,100129.50
2022-11-19T16:42:15.687Z,100144.94
2022-11-19T16:44:43.664Z,100151.13
2022-11-19T16:47:15.883Z,100154.66
2022-11-19T16:50:09.432Z,100159.00
2022-11-19T16:52:41.394Z,100028.63
2022-11-19T16:55:40.210Z,100147.78
2022-11-19T16:58:15.217Z,100128.25
2022-11-19T17:00:43.783Z,100148.81
2022-11-19T17:03:20.466Z,100157.66
2022-11-19T17:05:50.759Z,100158.56
2022-11-19T17:08:21.653Z,100155.03
2022-11-19T17:10:49.113Z,100162.06
2022-11-19T17:13:27.746Z,100155.09
2022-11-19T17:15:55.616Z,100155.94
2022-11-19T17:18:27.953Z,100088.25
2022-11-19T17:20:57.066Z,100147.38
2022-11-19T17:23:25.441Z,100142.06
2022-11-19T17:25:54.063Z,100148.19
2022-11-19T17:28:26.137Z,100116.56
2022-11-19T17:30:53.900Z,100087.13
2022-11-19T17:33:22.797Z,100153.50
2022-11-19T17:35:51.631Z,100086.47
2022-11-19T17:38:21.379Z,100114.81
2022-11-19T17:40:49.523Z,100142.31
2022-11-19T17:43:35.923Z,100055.03
2022-11-19T17:46:03.424Z,100151.19
2022-11-19T17:48:30.945Z,100149.44
2022-11-19T17:50:58.608Z,100154.47
2022-11-19T17:53:27.377Z,100159.84
2022-11-19T17:55:55.077Z,100160.56
2022-11-19T17:58:22.554Z,100161.56
2022-11-19T18:00:50.035Z,100093.25
2022-11-19T18:03:17.643Z,100165.16
2022-11-19T18:05:47.273Z,100124.75
2022-11-19T18:08:14.986Z,100121.66
2022-11-19T18:10:44.578Z,100168.81
2022-11-19T18:13:12.800Z,100167.94
2022-11-19T18:15:40.292Z,100173.34
2022-11-19T18:18:07.766Z,100177.63
2022-11-19T18:20:35.236Z,100175.09
2022-11-19T18:23:02.687Z,100179.53
2022-11-19T18:25:30.169Z,100166.69
2022-11-19T18:27:58.924Z,100183.03
2022-11-19T18:30:26.392Z,100181.31
2022-11-19T18:32:53.853Z,100176.13
2022-11-19T18:35:22.353Z,100170.09
2022-11-19T18:37:49.821Z,100179.66
2022-11-19T18:40:17.468Z,100176.94
2022-11-19T18:42:58.993Z,100175.19
2022-11-19T18:45:27.756Z,100178.75
2022-11-19T18:47:55.255Z,100175.31
2022-11-19T18:50:29.401Z,100176.16
2022-11-19T18:52:57.526Z,100168.44
2022-11-19T18:55:24.974Z,100167.63
2022-11-19T18:57:52.400Z,100172.09
2022-11-19T19:00:20.399Z,100170.41
2022-11-19T19:02:49.172Z,100170.41
2022-11-19T19:05:16.780Z,100172.19
2022-11-19T19:07:44.289Z,100178.38
2022-11-19T19:10:11.778Z,100183.63
2022-11-19T19:12:39.228Z,100190.72
2022-11-19T19:15:07.328Z,100172.38
2022-11-19T19:17:34.755Z,100181.06
2022-11-19T19:20:03.535Z,100184.56
2022-11-19T19:22:31.024Z,100181.94
2022-11-19T19:24:58.678Z,100178.47
2022-11-19T19:27:26.222Z,100183.00
2022-11-19T19:29:53.686Z,100182.84
2022-11-19T19:32:21.200Z,100188.09
2022-11-19T19:34:48.651Z,100181.94
2022-11-19T19:37:17.408Z,100187.22
2022-11-19T19:39:44.831Z,100181.09
2022-11-19T19:42:12.376Z,100177.75
2022-11-19T19:44:39.795Z,100175.94
2022-11-19T19:47:07.231Z,100180.41
2022-11-19T19:49:38.641Z,100175.25
2022-11-19T19:52:06.605Z,100170.06
2022-11-19T19:54:35.376Z,100174.34
2022-11-19T19:57:02.832Z,100174.44
2022-11-19T19:59:30.266Z,100174.34
2022-11-19T20:01:57.805Z,100188.34
2022-11-19T20:04:25.308Z,100177.88
2022-11-19T20:06:54.243Z,100173.53
2022-11-19T20:09:21.680Z,100174.38
2022-11-19T20:11:50.456Z,100183.09
2022-11-19T20:14:17.875Z,100178.88
2022-11-19T20:16:45.337Z,100177.16
2022-11-19T20:19:13.566Z,100175.44
2022-11-19T20:21:41.039Z,100104.31
2022-11-19T20:24:12.665Z,100179.00
2022-11-19T20:26:41.108Z,100180.84
2022-11-19T20:29:11.548Z,100176.38
2022-11-19T20:31:39.003Z,100167.78
2022-11-19T20:34:06.473Z,100168.59
2022-11-19T20:36:34.945Z,100170.41
2022-11-19T20:39:02.412Z,100062.09
2022-11-19T20:41:47.867Z,100087.03
2022-11-19T20:44:23.338Z,100163.50
2022-11-19T20:46:52.049Z,100166.03
2022-11-19T20:49:20.392Z,100062.16
2022-11-19T20:51:48.032Z,100160.09
2022-11-19T20:54:15.507Z,100153.91
2022-11-19T20:56:43.131Z,100160.09
2022-11-19T20:59:10.664Z,100069.19
2022-11-19T21:01:39.713Z,100151.38
2022-11-19T21:04:07.300Z,100161.94
2022-11-19T21:06:34.757Z,100161.94
2022-11-19T21:09:02.213Z,100165.47
2022-11-19T21:11:29.716Z,100156.75
2022-11-19T21:13:57.268Z,100160.31
2022-11-19T21:16:25.238Z,100090.00
2022-11-19T21:18:53.979Z,100146.44
2022-11-19T21:21:22.024Z,100104.31
2022-11-19T21:23:49.451Z,100153.28
2022-11-19T21:26:18.130Z,100053.56
2022-11-19T21:28:46.586Z,100149.06
2022-11-19T21:31:14.151Z,100048.50
2022-11-19T21:33:41.623Z,100147.25
2022-11-19T21:36:11.469Z,100150.72
2022-11-19T21:38:39.308Z,100142.84
2022-11-19T21:41:07.166Z,100142.97
2022-11-19T21:43:35.109Z,100136.06
2022-11-19T21:46:02.577Z,100141.28
2022-11-19T21:48:30.024Z,100136.16
2022-11-19T21:50:57.472Z,100125.63
2022-11-19T21:53:26.284Z,100137.00
2022-11-19T21:55:53.727Z,100141.41
2022-11-19T21:58:21.164Z,100142.34
2022-11-19T22:00:48.624Z,100137.94
2022-11-19T22:03:16.177Z,100143.22
2022-11-19T22:05:43.634Z,100142.44
2022-11-19T22:08:11.088Z,100132.81
2022-11-19T22:10:45.245Z,100143.38
2022-11-19T22:13:13.016Z,100066.94
2022-11-19T22:15:40.503Z,100144.19
2022-11-19T22:18:07.958Z,100149.47
2022-11-19T22:20:35.422Z,100146.81
2022-11-19T22:23:02.881Z,100051.53
2022-11-19T22:25:30.307Z,100139.94
2022-11-19T22:27:59.085Z,100139.94
2022-11-19T22:30:26.553Z,100143.50
2022-11-19T22:32:54.012Z,100133.84
2022-11-19T22:35:21.450Z,100142.59
2022-11-19T22:37:48.903Z,100145.19
2022-11-19T22:40:16.406Z,100059.19
2022-11-19T22:42:43.864Z,100134.84
2022-11-19T22:45:12.713Z,100117.75
2022-11-19T22:47:40.236Z,100136.63
2022-11-19T22:50:08.815Z,100144.53
2022-11-19T22:52:36.276Z,100147.16
2022-11-19T22:55:03.691Z,100149.72
2022-11-19T22:57:31.113Z,100147.25
2022-11-19T22:59:58.551Z,100151.56
2022-11-19T23:02:27.317Z,100146.41
2022-11-19T23:04:54.752Z,100144.66
2022-11-19T23:07:22.248Z,100138.50
2022-11-19T23:09:49.716Z,100136.75
2022-11-19T23:12:34.991Z,100135.09
2022-11-19T23:15:02.436Z,100134.25
2022-11-19T23:17:31.196Z,100131.69
2022-11-19T23:20:03.198Z,100124.72
2022-11-19T23:22:32.159Z,100122.91
2022-11-19T23:24:59.614Z,100107.50
2022-11-19T23:27:27.084Z,100113.38
2022-11-19T23:29:54.967Z,100118.66
2022-11-19T23:32:22.404Z,100120.47
2022-11-19T23:34:51.171Z,100113.50
2022-11-19T23:37:19.065Z,100114.44
2022-11-19T23:39:46.554Z,100115.22
2022-11-19T23:42:13.993Z,100108.34
2022-11-19T23:44:41.432Z,100106.69
2022-11-19T23:47:08.887Z,100112.69
2022-11-19T23:49:36.354Z,100107.44
2022-11-19T23:52:05.444Z,100092.16
2022-11-19T23:54:32.959Z,100107.50
2022-11-19T23:57:00.499Z,100101.41
2022-11-19T23:59:28.128Z,100103.16
